createdAt,value
2018-12-22T00:01:19.036Z,96.80
2018-12-22T00:03:45.336Z,96.90
2018-12-22T00:06:11.607Z,97.10
2018-12-22T00:08:37.874Z,97.20
2018-12-22T00:11:04.152Z,97.30
2018-12-22T00:13:30.430Z,97.30
2018-12-22T00:15:56.748Z,97.30
2018-12-22T00:18:23.072Z,97.40
2018-12-22T00:20:49.431Z,97.50
2018-12-22T00:23:15.779Z,97.60
2018-12-22T00:25:42.045Z,97.70
2018-12-22T00:28:08.305Z,97.70
2018-12-22T00:30:34.571Z,97.80
2018-12-22T00:33:00.986Z,97.80
2018-12-22T00:35:28.143Z,97.90
2018-12-22T00:37:54.445Z,98.10
2018-12-22T00:40:20.700Z,98.10
2018-12-22T00:42:47.317Z,98.10
2018-12-22T00:45:13.637Z,98.20
2018-12-22T00:47:39.936Z,98.30
2018-12-22T00:50:06.251Z,98.30
2018-12-22T00:52:32.587Z,98.40
2018-12-22T00:54:58.867Z,98.50
2018-12-22T00:57:25.209Z,98.50
2018-12-22T00:59:51.467Z,98.50
2018-12-22T01:02:17.757Z,98.50
2018-12-22T01:04:44.074Z,98.60
2018-12-22T01:07:10.436Z,98.70
2018-12-22T01:09:36.669Z,98.80
2018-12-22T01:12:03.217Z,98.80
2018-12-22T01:14:29.673Z,98.70
2018-12-22T01:16:55.978Z,98.80
2018-12-22T01:19:22.364Z,98.80
2018-12-22T01:21:48.657Z,98.80
2018-12-22T01:24:14.964Z,99.00
2018-12-22T01:26:41.247Z,99.00
2018-12-22T01:29:07.622Z,99.00
2018-12-22T01:31:33.956Z,99.00
2018-12-22T01:34:00.222Z,99.10
2018-12-22T01:36:26.538Z,99.00
2018-12-22T01:38:52.806Z,99.00
2018-12-22T01:41:19.131Z,99.40
2018-12-22T01:43:45.413Z,99.10
2018-12-22T01:46:11.750Z,99.20
2018-12-22T01:48:38.117Z,99.20
2018-12-22T01:51:04.384Z,99.20
2018-12-22T01:53:30.661Z,99.20
2018-12-22T01:55:57.046Z,99.30
2018-12-22T01:58:23.995Z,99.30
2018-12-22T02:00:50.256Z,99.30
2018-12-22T02:03:16.576Z,99.30
2018-12-22T02:05:42.814Z,99.30
2018-12-22T02:08:09.104Z,99.40
2018-12-22T02:10:35.349Z,99.40
2018-12-22T02:13:01.645Z,99.50
2018-12-22T02:15:27.936Z,99.50
2018-12-22T02:17:54.197Z,99.50
2018-12-22T02:20:20.484Z,99.60
2018-12-22T02:22:46.729Z,99.60
2018-12-22T02:25:13.131Z,99.70
2018-12-22T02:27:39.393Z,99.70
2018-12-22T02:30:05.677Z,99.60
2018-12-22T02:32:32.061Z,99.60
2018-12-22T02:34:58.346Z,99.60
2018-12-22T02:37:24.618Z,99.70
2018-12-22T02:39:50.861Z,99.70
2018-12-22T02:42:17.152Z,99.70
2018-12-22T02:44:43.499Z,99.70
2018-12-22T02:47:09.806Z,99.80
2018-12-22T02:49:36.050Z,99.70
2018-12-22T02:52:02.411Z,99.70
2018-12-22T02:54:28.696Z,99.80
2018-12-22T02:56:55.018Z,99.80
2018-12-22T02:59:21.302Z,99.90
2018-12-22T03:01:47.552Z,99.90
2018-12-22T03:04:13.798Z,99.90
2018-12-22T03:06:40.171Z,99.90
2018-12-22T03:09:06.487Z,99.90
2018-12-22T03:11:32.796Z,99.90
2018-12-22T03:13:59.073Z,99.90
2018-12-22T03:16:25.385Z,99.90
2018-12-22T03:18:51.776Z,99.90
2018-12-22T03:21:18.102Z,99.90
2018-12-22T03:23:44.444Z,99.90
2018-12-22T03:26:10.713Z,99.90
2018-12-22T03:28:36.967Z,99.90
2018-12-22T03:31:03.371Z,99.90
2018-12-22T03:33:29.653Z,99.90
2018-12-22T03:35:55.989Z,99.90
2018-12-22T03:38:22.263Z,99.90
2018-12-22T03:40:48.569Z,99.90
2018-12-22T03:43:14.906Z,99.90
2018-12-22T03:45:41.182Z,99.90
2018-12-22T03:48:07.494Z,99.90
2018-12-22T03:50:33.749Z,99.90
2018-12-22T03:53:00.089Z,99.90
2018-12-22T03:55:26.323Z,99.70
2018-12-22T03:57:52.592Z,99.60
2018-12-22T04:00:18.898Z,99.50
2018-12-22T04:02:45.217Z,99.30
2018-12-22T04:05:11.529Z,99.00
2018-12-22T04:07:37.855Z,98.80
2018-12-22T04:10:05.444Z,98.50
2018-12-22T04:12:31.777Z,98.30
2018-12-22T04:14:58.141Z,98.20
2018-12-22T04:17:24.450Z,98.00
2018-12-22T04:19:50.763Z,97.90
2018-12-22T04:22:17.194Z,97.80
2018-12-22T04:24:43.445Z,97.70
2018-12-22T04:27:09.706Z,97.60
2018-12-22T04:29:35.968Z,97.60
2018-12-22T04:32:02.258Z,97.40
2018-12-22T04:34:28.518Z,97.40
2018-12-22T04:36:55.076Z,97.40
2018-12-22T04:39:21.315Z,97.30
2018-12-22T04:41:47.647Z,97.20
2018-12-22T04:44:13.924Z,97.00
2018-12-22T04:46:40.212Z,96.90
2018-12-22T04:49:06.464Z,96.80
2018-12-22T04:51:32.847Z,96.90
2018-12-22T04:53:59.113Z,96.70
2018-12-22T04:56:25.404Z,96.60
2018-12-22T04:58:51.714Z,96.70
2018-12-22T05:01:18.110Z,96.40
2018-12-22T05:03:44.454Z,95.90
2018-12-22T05:06:10.751Z,95.80
2018-12-22T05:08:37.218Z,95.70
2018-12-22T05:11:03.547Z,95.50
2018-12-22T05:13:29.812Z,95.30
2018-12-22T05:15:56.043Z,95.00
2018-12-22T05:18:22.331Z,95.00
2018-12-22T05:20:48.647Z,94.70
2018-12-22T05:23:14.907Z,94.50
2018-12-22T05:25:41.170Z,94.50
2018-12-22T05:28:07.767Z,94.50
2018-12-22T05:30:34.066Z,94.10
2018-12-22T05:33:00.422Z,94.00
2018-12-22T05:35:26.672Z,93.60
2018-12-22T05:37:52.938Z,93.20
2018-12-22T05:40:19.204Z,92.80
2018-12-22T05:42:46.557Z,92.30
2018-12-22T05:45:12.861Z,91.40
2018-12-22T05:47:39.104Z,91.00
2018-12-22T05:50:06.409Z,90.70
2018-12-22T05:52:32.835Z,88.60
2018-12-22T05:54:59.086Z,89.00
2018-12-22T05:57:25.374Z,87.80
2018-12-22T06:00:00.186Z,87.80
2018-12-22T06:02:19.965Z,87.30
2018-12-22T06:04:46.230Z,87.90
2018-12-22T06:07:12.569Z,87.70
2018-12-22T06:09:38.896Z,86.30
2018-12-22T06:12:05.180Z,85.30
2018-12-22T06:14:31.615Z,84.60
2018-12-22T06:16:57.952Z,83.90
2018-12-22T06:19:24.211Z,84.20
2018-12-22T06:21:50.483Z,83.30
2018-12-22T06:24:16.813Z,83.30
2018-12-22T06:26:43.168Z,83.80
2018-12-22T06:29:09.482Z,82.50
2018-12-22T06:31:35.828Z,82.80
2018-12-22T06:34:02.145Z,81.20
2018-12-22T06:36:28.487Z,80.30
2018-12-22T06:38:54.756Z,79.70
2018-12-22T06:41:20.983Z,80.30
2018-12-22T06:43:47.242Z,80.20
2018-12-22T06:46:13.475Z,80.50
2018-12-22T06:48:39.739Z,81.90
2018-12-22T06:51:06.063Z,82.50
2018-12-22T06:53:32.353Z,83.00
2018-12-22T06:55:58.754Z,83.40
2018-12-22T06:58:25.039Z,83.60
2018-12-22T07:00:51.353Z,83.50
2018-12-22T07:03:17.600Z,83.30
2018-12-22T07:05:43.886Z,84.00
2018-12-22T07:08:10.177Z,85.40
2018-12-22T07:10:36.556Z,86.00
2018-12-22T07:13:03.080Z,87.10
2018-12-22T07:15:29.451Z,87.70
2018-12-22T07:17:55.866Z,88.40
2018-12-22T07:20:22.152Z,89.90
2018-12-22T07:22:48.468Z,89.90
2018-12-22T07:25:14.775Z,90.10
2018-12-22T07:27:41.088Z,90.20
2018-12-22T07:30:09.119Z,90.30
2018-12-22T07:32:35.359Z,90.40
2018-12-22T07:35:01.677Z,90.00
2018-12-22T07:37:27.978Z,90.30
2018-12-22T07:39:54.320Z,90.30
2018-12-22T07:42:20.766Z,90.30
2018-12-22T07:44:47.024Z,90.30
2018-12-22T07:47:13.295Z,90.30
2018-12-22T07:49:40.386Z,90.40
2018-12-22T07:52:06.723Z,90.40
2018-12-22T07:54:33.044Z,90.40
2018-12-22T07:57:00.016Z,90.30
2018-12-22T07:59:26.285Z,90.10
2018-12-22T08:01:52.723Z,90.10
2018-12-22T08:04:19.882Z,90.00
2018-12-22T08:06:46.186Z,89.90
2018-12-22T08:09:12.599Z,89.30
2018-12-22T08:11:39.324Z,88.80
2018-12-22T08:14:05.639Z,88.70
2018-12-22T08:16:32.035Z,89.20
2018-12-22T08:18:58.297Z,89.30
2018-12-22T08:21:24.632Z,89.10
2018-12-22T08:23:50.943Z,89.50
2018-12-22T08:26:17.225Z,89.50
2018-12-22T08:28:43.564Z,90.00
2018-12-22T08:31:10.501Z,90.20
2018-12-22T08:33:36.834Z,90.00
2018-12-22T08:36:03.125Z,89.90
2018-12-22T08:38:30.095Z,90.30
2018-12-22T08:40:56.476Z,90.40
2018-12-22T08:43:22.723Z,90.50
2018-12-22T08:45:49.143Z,90.70
2018-12-22T08:48:15.470Z,90.70
2018-12-22T08:50:41.742Z,90.90
2018-12-22T08:53:08.038Z,91.20
2018-12-22T08:55:34.392Z,91.60
2018-12-22T08:58:01.803Z,91.90
2018-12-22T09:00:28.085Z,92.30
2018-12-22T09:02:54.377Z,92.90
2018-12-22T09:05:21.126Z,93.30
2018-12-22T09:07:47.457Z,93.60
2018-12-22T09:10:13.723Z,93.80
2018-12-22T09:12:40.041Z,93.90
2018-12-22T09:15:07.367Z,94.00
2018-12-22T09:17:33.661Z,94.10
2018-12-22T09:20:00.278Z,94.30
2018-12-22T09:22:26.712Z,94.40
2018-12-22T09:24:53.019Z,94.40
2018-12-22T09:27:19.459Z,94.60
2018-12-22T09:29:45.724Z,94.70
2018-12-22T09:32:12.120Z,94.80
2018-12-22T09:34:38.433Z,94.70
2018-12-22T09:37:06.835Z,94.90
2018-12-22T09:39:33.114Z,95.00
2018-12-22T09:41:59.414Z,95.30
2018-12-22T09:44:25.714Z,95.40
2018-12-22T09:46:52.139Z,95.30
2018-12-22T09:49:18.424Z,95.30
2018-12-22T09:51:44.795Z,95.40
2018-12-22T09:54:11.491Z,95.50
2018-12-22T09:56:37.739Z,95.50
2018-12-22T09:59:06.359Z,95.80
2018-12-22T10:01:32.518Z,95.80
2018-12-22T10:03:58.779Z,94.50
2018-12-22T10:06:25.058Z,94.00
2018-12-22T10:08:51.735Z,93.60
2018-12-22T10:11:18.444Z,93.60
2018-12-22T10:13:44.751Z,94.00
2018-12-22T10:16:11.061Z,94.60
2018-12-22T10:18:37.416Z,95.20
2018-12-22T10:21:03.674Z,95.40
2018-12-22T10:23:30.131Z,95.60
2018-12-22T10:25:56.520Z,96.10
2018-12-22T10:28:22.911Z,96.30
2018-12-22T10:30:49.236Z,96.20
2018-12-22T10:33:15.512Z,96.40
2018-12-22T10:35:42.512Z,96.20
2018-12-22T10:38:08.902Z,95.60
2018-12-22T10:40:35.204Z,95.30
2018-12-22T10:43:01.649Z,95.50
2018-12-22T10:45:27.922Z,95.30
2018-12-22T10:47:54.198Z,95.10
2018-12-22T10:50:20.617Z,94.80
2018-12-22T10:52:48.807Z,94.70
2018-12-22T10:55:15.245Z,94.60
2018-12-22T10:57:41.570Z,94.00
2018-12-22T11:00:10.354Z,93.70
2018-12-22T11:02:36.656Z,93.00
2018-12-22T11:05:04.909Z,93.30
2018-12-22T11:07:31.211Z,92.50
2018-12-22T11:09:57.587Z,92.60
2018-12-22T11:12:23.970Z,93.00
2018-12-22T11:14:50.353Z,92.50
2018-12-22T11:17:16.645Z,92.50
2018-12-22T11:19:43.333Z,92.70
2018-12-22T11:22:09.648Z,92.20
2018-12-22T11:24:35.932Z,91.90
2018-12-22T11:27:02.681Z,92.40
2018-12-22T11:29:29.029Z,92.30
2018-12-22T11:31:55.334Z,92.80
2018-12-22T11:34:21.668Z,92.50
2018-12-22T11:36:47.917Z,92.60
2018-12-22T11:39:14.222Z,92.60
2018-12-22T11:41:40.710Z,92.90
2018-12-22T11:44:07.330Z,92.70
2018-12-22T11:46:34.018Z,92.60
2018-12-22T11:49:00.531Z,92.70
2018-12-22T11:51:26.840Z,92.80
2018-12-22T11:53:53.551Z,93.10
2018-12-22T11:56:19.886Z,93.30
2018-12-22T11:58:46.123Z,93.40
2018-12-22T12:01:12.460Z,93.70
2018-12-22T12:03:38.748Z,94.00
2018-12-22T12:06:05.124Z,94.00
2018-12-22T12:08:31.789Z,94.10
2018-12-22T12:10:58.058Z,94.50
2018-12-22T12:13:24.356Z,94.40
2018-12-22T12:15:50.813Z,94.80
2018-12-22T12:18:24.936Z,94.90
2018-12-22T12:20:51.246Z,94.70
2018-12-22T12:23:17.602Z,95.30
2018-12-22T12:25:44.196Z,95.10
2018-12-22T12:28:10.502Z,95.40
2018-12-22T12:30:36.991Z,95.60
2018-12-22T12:33:03.520Z,95.50
2018-12-22T12:35:29.843Z,95.40
2018-12-22T12:37:56.157Z,95.60
2018-12-22T12:40:22.701Z,95.70
2018-12-22T12:42:49.063Z,95.70
2018-12-22T12:45:15.364Z,95.70
2018-12-22T12:47:43.290Z,95.80
2018-12-22T12:50:13.262Z,95.60
2018-12-22T12:52:39.551Z,95.60
2018-12-22T12:55:10.746Z,95.60
2018-12-22T12:57:37.266Z,95.20
2018-12-22T13:00:08.333Z,95.30
2018-12-22T13:02:34.829Z,95.20
2018-12-22T13:05:01.175Z,95.30
2018-12-22T13:07:27.452Z,95.10
2018-12-22T13:09:53.983Z,94.80
2018-12-22T13:12:20.616Z,95.00
2018-12-22T13:14:47.063Z,95.30
2018-12-22T13:17:13.355Z,95.10
2018-12-22T13:19:39.675Z,95.00
2018-12-22T13:22:05.996Z,94.90
2018-12-22T13:24:32.337Z,94.10
2018-12-22T13:26:58.729Z,93.30
2018-12-22T13:29:25.234Z,93.40
2018-12-22T13:31:51.549Z,92.70
2018-12-22T13:34:17.850Z,92.30
2018-12-22T13:36:44.199Z,91.70
2018-12-22T13:39:10.828Z,92.60
2018-12-22T13:41:37.290Z,92.30
2018-12-22T13:44:03.568Z,92.30
2018-12-22T13:46:29.787Z,92.50
2018-12-22T13:48:56.092Z,91.80
2018-12-22T13:51:22.675Z,90.90
2018-12-22T13:53:49.050Z,91.30
2018-12-22T13:56:15.671Z,91.50
2018-12-22T13:58:41.961Z,91.50
2018-12-22T14:01:08.367Z,91.30
2018-12-22T14:03:34.962Z,90.80
2018-12-22T14:06:01.567Z,91.20
2018-12-22T14:08:28.913Z,91.20
2018-12-22T14:10:55.806Z,91.20
2018-12-22T14:13:22.335Z,91.20
2018-12-22T14:15:49.309Z,90.90
2018-12-22T14:18:27.834Z,91.00
2018-12-22T14:20:54.430Z,91.30
2018-12-22T14:23:24.017Z,91.50
2018-12-22T14:25:50.605Z,91.40
2018-12-22T14:28:16.998Z,91.50
2018-12-22T14:30:43.327Z,91.10
2018-12-22T14:33:09.769Z,91.30
2018-12-22T14:35:36.591Z,91.40
2018-12-22T14:38:02.913Z,91.60
2018-12-22T14:40:29.265Z,91.60
2018-12-22T14:42:57.216Z,91.70
2018-12-22T14:45:24.288Z,91.80
2018-12-22T14:47:55.826Z,91.90
2018-12-22T14:50:29.812Z,92.10
2018-12-22T14:52:56.539Z,92.10
2018-12-22T14:55:25.565Z,92.50
2018-12-22T14:57:56.386Z,93.00
2018-12-22T15:00:22.986Z,93.30
2018-12-22T15:02:50.642Z,93.50
2018-12-22T15:05:18.054Z,93.50
2018-12-22T15:07:46.289Z,93.60
2018-12-22T15:10:14.338Z,94.00
2018-12-22T15:12:43.239Z,93.80
2018-12-22T15:15:11.334Z,93.90
2018-12-22T15:17:42.486Z,93.90
2018-12-22T15:20:18.390Z,93.90
2018-12-22T15:22:46.770Z,93.90
2018-12-22T15:25:13.280Z,94.00
2018-12-22T15:27:41.155Z,94.10
2018-12-22T15:30:10.801Z,94.00
2018-12-22T15:32:44.200Z,94.10
2018-12-22T15:35:08.087Z,94.10
2018-12-22T15:37:34.733Z,94.00
2018-12-22T15:40:01.212Z,94.00
2018-12-22T15:42:27.579Z,94.00
2018-12-22T15:44:53.866Z,93.90
2018-12-22T15:47:20.205Z,93.80
2018-12-22T15:49:46.773Z,93.60
2018-12-22T15:52:13.108Z,93.80
2018-12-22T15:54:39.647Z,93.80
2018-12-22T15:57:06.264Z,93.60
2018-12-22T15:59:32.585Z,93.60
2018-12-22T16:01:58.967Z,93.70
2018-12-22T16:04:25.233Z,93.60
2018-12-22T16:06:51.735Z,93.60
2018-12-22T16:09:18.132Z,93.60
2018-12-22T16:11:44.691Z,93.70
2018-12-22T16:14:10.981Z,93.70
2018-12-22T16:16:37.594Z,93.70
2018-12-22T16:19:04.945Z,94.00
2018-12-22T16:21:31.408Z,94.00
2018-12-22T16:23:57.827Z,94.00
2018-12-22T16:26:24.237Z,93.60
2018-12-22T16:28:50.728Z,93.60
2018-12-22T16:31:18.053Z,93.60
2018-12-22T16:33:44.513Z,93.30
2018-12-22T16:36:10.823Z,93.10
2018-12-22T16:38:37.430Z,92.70
2018-12-22T16:41:03.920Z,92.40
2018-12-22T16:43:30.300Z,92.40
2018-12-22T16:45:59.376Z,92.30
2018-12-22T16:48:25.802Z,92.40
2018-12-22T16:50:52.267Z,92.20
2018-12-22T16:53:18.627Z,92.30
2018-12-22T16:55:45.032Z,92.30
2018-12-22T16:58:15.440Z,92.20
2018-12-22T17:00:49.814Z,92.20
2018-12-22T17:03:16.271Z,92.10
2018-12-22T17:05:42.685Z,92.00
2018-12-22T17:08:09.004Z,92.00
2018-12-22T17:10:35.335Z,91.80
2018-12-22T17:13:01.598Z,91.90
2018-12-22T17:15:28.018Z,92.00
2018-12-22T17:17:54.419Z,92.30
2018-12-22T17:20:20.747Z,92.40
2018-12-22T17:23:15.845Z,92.40
2018-12-22T17:25:44.277Z,92.30
2018-12-22T17:28:10.709Z,92.20
2018-12-22T17:30:37.331Z,92.30
2018-12-22T17:33:04.620Z,92.10
2018-12-22T17:35:31.268Z,91.80
2018-12-22T17:37:57.961Z,91.20
2018-12-22T17:40:24.405Z,91.00
2018-12-22T17:42:50.660Z,91.20
2018-12-22T17:45:16.957Z,91.30
2018-12-22T17:47:43.256Z,91.50
2018-12-22T17:50:09.629Z,91.40
2018-12-22T17:52:36.086Z,91.70
2018-12-22T17:55:02.599Z,91.80
2018-12-22T17:57:28.935Z,91.50
2018-12-22T17:59:55.478Z,91.40
2018-12-22T18:02:21.788Z,91.20
2018-12-22T18:04:48.445Z,91.20
2018-12-22T18:07:14.769Z,91.20
2018-12-22T18:09:41.097Z,91.30
2018-12-22T18:12:07.426Z,91.40
2018-12-22T18:14:33.745Z,91.50
2018-12-22T18:17:00.170Z,91.50
2018-12-22T18:19:26.493Z,91.60
2018-12-22T18:21:52.907Z,91.70
2018-12-22T18:24:19.263Z,91.90
2018-12-22T18:26:46.852Z,91.90
2018-12-22T18:29:13.097Z,91.90
2018-12-22T18:31:39.388Z,91.80
2018-12-22T18:34:05.822Z,91.90
2018-12-22T18:36:32.181Z,91.90
2018-12-22T18:38:58.731Z,91.90
2018-12-22T18:41:25.036Z,91.90
2018-12-22T18:43:51.410Z,91.70
2018-12-22T18:46:17.695Z,91.70
2018-12-22T18:48:44.169Z,91.60
2018-12-22T18:51:10.453Z,91.60
2018-12-22T18:53:36.806Z,91.50
2018-12-22T18:56:03.248Z,91.40
2018-12-22T18:58:29.733Z,91.50
2018-12-22T19:00:56.100Z,91.40
2018-12-22T19:03:22.448Z,91.50
2018-12-22T19:05:48.970Z,91.50
2018-12-22T19:08:15.401Z,91.60
2018-12-22T19:10:41.663Z,91.60
2018-12-22T19:13:08.058Z,91.70
2018-12-22T19:15:34.327Z,91.70
2018-12-22T19:18:00.640Z,91.80
2018-12-22T19:20:30.976Z,91.80
2018-12-22T19:22:58.169Z,91.80
2018-12-22T19:25:25.717Z,91.90
2018-12-22T19:27:51.996Z,91.80
2018-12-22T19:30:18.247Z,91.80
2018-12-22T19:32:44.822Z,91.90
2018-12-22T19:35:11.110Z,91.90
2018-12-22T19:37:37.428Z,92.00
2018-12-22T19:40:03.943Z,92.00
2018-12-22T19:42:30.294Z,92.00
2018-12-22T19:44:56.613Z,92.00
2018-12-22T19:47:22.889Z,92.00
2018-12-22T19:49:49.416Z,92.00
2018-12-22T19:52:15.717Z,92.10
2018-12-22T19:54:42.071Z,92.30
2018-12-22T19:57:08.397Z,92.50
2018-12-22T19:59:34.695Z,92.50
2018-12-22T20:02:01.127Z,92.60
2018-12-22T20:04:27.491Z,92.60
2018-12-22T20:06:53.745Z,92.60
2018-12-22T20:09:20.365Z,92.50
2018-12-22T20:11:46.809Z,92.50
2018-12-22T20:14:13.077Z,92.50
2018-12-22T20:16:39.423Z,92.40
2018-12-22T20:19:06.238Z,92.50
2018-12-22T20:21:32.618Z,92.50
2018-12-22T20:23:58.936Z,92.50
2018-12-22T20:26:25.216Z,92.40
2018-12-22T20:28:51.521Z,92.30
2018-12-22T20:31:17.858Z,92.30
2018-12-22T20:33:44.194Z,92.30
2018-12-22T20:36:11.546Z,92.10
2018-12-22T20:38:37.885Z,92.40
2018-12-22T20:41:04.303Z,92.20
2018-12-22T20:43:30.918Z,92.20
2018-12-22T20:45:57.305Z,92.10
2018-12-22T20:48:23.538Z,92.20
2018-12-22T20:50:49.899Z,92.20
2018-12-22T20:53:16.170Z,92.30
2018-12-22T20:55:42.414Z,91.80
2018-12-22T20:58:08.714Z,91.80
2018-12-22T21:00:34.984Z,91.90
2018-12-22T21:03:01.470Z,91.50
2018-12-22T21:05:29.312Z,91.80
2018-12-22T21:07:55.613Z,92.60
2018-12-22T21:10:21.916Z,93.00
2018-12-22T21:12:48.247Z,93.00
2018-12-22T21:15:14.543Z,93.10
2018-12-22T21:17:41.178Z,93.10
2018-12-22T21:20:07.771Z,93.10
2018-12-22T21:22:34.039Z,93.00
2018-12-22T21:25:00.652Z,93.00
2018-12-22T21:27:27.229Z,93.00
2018-12-22T21:29:53.503Z,93.10
2018-12-22T21:32:19.859Z,93.00
2018-12-22T21:34:46.222Z,93.10
2018-12-22T21:37:12.539Z,93.10
2018-12-22T21:39:38.888Z,93.20
2018-12-22T21:42:05.255Z,93.40
2018-12-22T21:44:31.884Z,93.30
2018-12-22T21:46:58.216Z,93.30
2018-12-22T21:49:24.594Z,93.40
2018-12-22T21:51:51.720Z,93.60
2018-12-22T21:54:18.060Z,93.60
2018-12-22T21:56:44.441Z,93.70
2018-12-22T21:59:11.146Z,93.90
2018-12-22T22:01:37.659Z,94.00
2018-12-22T22:04:04.135Z,94.10
2018-12-22T22:06:30.452Z,94.30
2018-12-22T22:08:56.788Z,94.30
2018-12-22T22:11:23.169Z,94.30
2018-12-22T22:13:49.527Z,94.30
2018-12-22T22:16:15.969Z,94.30
2018-12-22T22:18:42.231Z,94.50
2018-12-22T22:21:08.586Z,94.50
2018-12-22T22:23:34.967Z,94.60
2018-12-22T22:26:01.642Z,94.50
2018-12-22T22:28:28.254Z,94.50
2018-12-22T22:30:54.545Z,94.50
2018-12-22T22:33:21.562Z,94.60
2018-12-22T22:35:48.107Z,94.60
2018-12-22T22:38:14.429Z,94.60
2018-12-22T22:40:40.712Z,94.60
2018-12-22T22:43:07.114Z,94.40
2018-12-22T22:45:33.596Z,94.30
2018-12-22T22:47:59.968Z,94.20
2018-12-22T22:50:26.272Z,94.00
2018-12-22T22:52:52.589Z,93.90
2018-12-22T22:55:18.926Z,93.80
2018-12-22T22:57:45.337Z,93.70
2018-12-22T23:00:14.108Z,93.50
2018-12-22T23:02:40.665Z,93.50
2018-12-22T23:05:06.984Z,93.40
2018-12-22T23:07:33.320Z,93.20
2018-12-22T23:09:59.675Z,93.10
2018-12-22T23:12:26.073Z,92.90
2018-12-22T23:14:52.436Z,92.80
2018-12-22T23:17:18.782Z,92.70
2018-12-22T23:19:45.100Z,92.70
2018-12-22T23:22:11.732Z,92.60
2018-12-22T23:24:40.436Z,92.50
2018-12-22T23:27:06.865Z,92.60
2018-12-22T23:29:33.179Z,92.50
2018-12-22T23:32:00.161Z,92.60
2018-12-22T23:34:26.616Z,92.80
2018-12-22T23:36:52.949Z,92.70
2018-12-22T23:39:19.676Z,92.60
2018-12-22T23:41:45.981Z,92.60
2018-12-22T23:44:12.351Z,92.50
2018-12-22T23:46:38.897Z,92.40
2018-12-22T23:49:05.117Z,92.70
2018-12-22T23:51:31.526Z,92.30
2018-12-22T23:53:58.459Z,92.20
2018-12-22T23:56:24.914Z,92.30
2018-12-22T23:58:51.172Z,92.30
